createdAt,value
2023-04-10T00:00:39.542Z,2.35
2023-04-10T00:03:07.416Z,2.63
2023-04-10T00:05:41.723Z,2.10
2023-04-10T00:08:08.933Z,1.60
2023-04-10T00:10:36.093Z,2.05
2023-04-10T00:13:11.597Z,2.03
2023-04-10T00:15:38.858Z,1.77
2023-04-10T00:18:12.506Z,2.00
2023-04-10T00:20:39.705Z,2.00
2023-04-10T00:23:20.640Z,1.90
2023-04-10T00:25:54.393Z,1.88
2023-04-10T00:28:28.509Z,1.80
2023-04-10T00:30:55.943Z,1.90
2023-04-10T00:33:29.659Z,1.63
2023-04-10T00:35:56.881Z,1.60
2023-04-10T00:38:24.388Z,1.77
2023-04-10T00:40:58.503Z,1.98
2023-04-10T00:43:25.793Z,1.90
2023-04-10T00:45:59.733Z,1.58
2023-04-10T00:48:27.301Z,1.60
2023-04-10T00:50:54.688Z,1.80
2023-04-10T00:53:29.579Z,1.58
2023-04-10T00:55:57.356Z,1.67
2023-04-10T00:58:32.755Z,1.33
2023-04-10T01:01:00.550Z,1.95
2023-04-10T01:03:28.064Z,1.60
2023-04-10T01:08:47.638Z,1.40
2023-04-10T01:11:27.532Z,1.80
2023-04-10T01:13:59.389Z,1.80
2023-04-10T01:16:37.642Z,1.63
2023-04-10T01:21:39.671Z,1.65
2023-04-10T01:24:28.613Z,1.58
2023-04-10T01:29:31.012Z,1.55
2023-04-10T01:32:06.613Z,1.67
2023-04-10T01:34:35.941Z,1.60
2023-04-10T01:37:11.598Z,1.48
2023-04-10T01:39:40.544Z,1.67
2023-04-10T01:42:14.573Z,1.73
2023-04-10T01:44:48.169Z,1.50
2023-04-10T01:47:23.613Z,1.50
2023-04-10T01:49:57.537Z,1.80
2023-04-10T01:52:27.040Z,1.88
2023-04-10T01:55:01.463Z,1.52
2023-04-10T01:57:31.879Z,1.88
2023-04-10T02:00:05.625Z,1.70
2023-04-10T02:02:33.291Z,1.90
2023-04-10T02:05:00.947Z,1.67
2023-04-10T02:10:02.946Z,1.83
2023-04-10T02:12:44.635Z,1.98
2023-04-10T02:15:12.631Z,2.28
2023-04-10T02:17:40.729Z,1.80
2023-04-10T02:20:15.539Z,1.70
2023-04-10T02:22:49.686Z,2.13
2023-04-10T02:25:23.551Z,2.35
2023-04-10T02:27:50.792Z,1.70
2023-04-10T02:30:17.934Z,1.83
2023-04-10T02:32:51.601Z,1.80
2023-04-10T02:35:18.966Z,2.05
2023-04-10T02:37:53.670Z,1.90
2023-04-10T02:40:20.988Z,2.22
2023-04-10T02:42:48.207Z,2.08
2023-04-10T02:45:21.655Z,1.88
2023-04-10T02:47:48.872Z,1.95
2023-04-10T02:50:23.693Z,1.90
2023-04-10T02:52:51.202Z,2.58
2023-04-10T02:55:18.371Z,2.10
2023-04-10T02:57:52.576Z,1.80
2023-04-10T03:00:20.173Z,2.30
2023-04-10T03:05:21.612Z,2.15
2023-04-10T03:07:48.729Z,2.25
2023-04-10T03:10:22.759Z,2.17
2023-04-10T03:12:50.178Z,2.05
2023-04-10T03:15:29.748Z,2.22
2023-04-10T03:17:57.054Z,2.38
2023-04-10T03:20:24.164Z,2.13
2023-04-10T03:22:58.768Z,2.22
2023-04-10T03:25:32.555Z,2.55
2023-04-10T03:28:06.589Z,2.40
2023-04-10T03:30:36.016Z,2.17
2023-04-10T03:33:03.297Z,2.50
2023-04-10T03:35:36.760Z,2.20
2023-04-10T03:38:03.951Z,2.60
2023-04-10T03:40:31.288Z,2.55
2023-04-10T03:43:04.617Z,3.08
2023-04-10T03:45:31.816Z,2.67
2023-04-10T03:48:06.702Z,2.78
2023-04-10T03:50:33.834Z,2.75
2023-04-10T03:53:01.710Z,2.75
2023-04-10T03:55:35.561Z,2.25
2023-04-10T03:58:02.771Z,2.78
2023-04-10T04:00:36.777Z,2.50
2023-04-10T04:03:05.250Z,2.83
2023-04-10T04:05:32.751Z,2.53
2023-04-10T04:08:06.809Z,2.50
2023-04-10T04:10:34.127Z,2.65
2023-04-10T04:13:01.332Z,2.50
2023-04-10T04:15:34.618Z,2.75
2023-04-10T04:18:01.956Z,3.20
2023-04-10T04:20:35.655Z,3.22
2023-04-10T04:23:22.496Z,3.20
2023-04-10T04:25:59.756Z,2.83
2023-04-10T04:28:28.434Z,3.13
2023-04-10T04:30:57.120Z,3.33
2023-04-10T04:33:35.573Z,2.35
2023-04-10T04:36:02.699Z,2.72
2023-04-10T04:38:36.781Z,3.13
2023-04-10T04:41:03.918Z,3.92
2023-04-10T04:43:31.692Z,3.20
2023-04-10T04:46:06.745Z,3.50
2023-04-10T04:48:34.406Z,3.53
2023-04-10T04:53:34.656Z,3.58
2023-04-10T04:56:02.621Z,3.30
2023-04-10T04:58:36.584Z,2.95
2023-04-10T05:01:03.950Z,3.85
2023-04-10T05:03:38.849Z,3.10
2023-04-10T05:06:06.188Z,2.95
2023-04-10T05:08:33.263Z,3.40
2023-04-10T05:11:07.844Z,3.38
2023-04-10T05:13:35.418Z,3.30
2023-04-10T05:18:36.441Z,3.17
2023-04-10T05:21:03.766Z,3.00
2023-04-10T05:23:37.599Z,3.30
2023-04-10T05:26:06.046Z,3.10
2023-04-10T05:28:33.154Z,3.00
2023-04-10T05:31:06.686Z,3.42
2023-04-10T05:33:34.002Z,3.58
2023-04-10T05:36:07.826Z,3.55
2023-04-10T05:38:35.801Z,3.30
2023-04-10T05:41:02.906Z,3.40
2023-04-10T05:43:36.586Z,2.95
2023-04-10T05:46:03.788Z,3.30
2023-04-10T05:48:37.786Z,2.83
2023-04-10T05:51:05.079Z,3.08
2023-04-10T05:53:32.569Z,3.40
2023-04-10T05:58:33.853Z,2.80
2023-04-10T06:01:07.717Z,2.95
2023-04-10T06:03:35.035Z,2.80
2023-04-10T06:06:05.574Z,3.47
2023-04-10T06:08:39.576Z,3.10
2023-04-10T06:11:06.855Z,3.20
2023-04-10T06:13:40.595Z,2.72
2023-04-10T06:16:08.528Z,3.58
2023-04-10T06:18:35.635Z,2.90
2023-04-10T06:21:09.810Z,3.13
2023-04-10T06:23:56.591Z,3.20
2023-04-10T06:26:32.673Z,3.10
2023-04-10T06:29:00.072Z,3.30
2023-04-10T06:31:27.351Z,3.28
2023-04-10T06:34:02.029Z,3.67
2023-04-10T06:36:29.222Z,3.63
2023-04-10T06:39:02.654Z,2.97
2023-04-10T06:41:29.784Z,3.45
2023-04-10T06:43:56.979Z,3.38
2023-04-10T06:46:30.724Z,3.72
2023-04-10T06:48:58.091Z,3.25
2023-04-10T06:51:32.905Z,3.47
2023-04-10T06:54:00.469Z,3.13
2023-04-10T06:59:01.598Z,3.55
2023-04-10T07:01:28.992Z,3.28
2023-04-10T07:04:03.684Z,2.80
2023-04-10T07:06:31.550Z,3.10
2023-04-10T07:08:58.642Z,3.60
2023-04-10T07:11:32.705Z,3.35
2023-04-10T07:13:59.899Z,2.92
2023-04-10T07:16:34.866Z,3.00
2023-04-10T07:19:02.029Z,2.80
2023-04-10T07:21:29.282Z,3.17
2023-04-10T07:24:02.606Z,2.40
2023-04-10T07:26:29.781Z,2.60
2023-04-10T07:29:03.657Z,2.85
2023-04-10T07:31:30.854Z,2.20
2023-04-10T07:33:58.032Z,2.40
2023-04-10T07:36:33.635Z,2.30
2023-04-10T07:39:01.141Z,2.28
2023-04-10T07:41:34.601Z,2.10
2023-04-10T07:44:01.968Z,2.30
2023-04-10T07:46:35.636Z,2.45
2023-04-10T07:49:02.949Z,2.17
2023-04-10T07:51:30.949Z,1.75
2023-04-10T07:54:04.635Z,2.10
2023-04-10T07:56:32.081Z,1.88
2023-04-10T07:59:09.631Z,1.83
2023-04-10T08:01:37.012Z,1.70
2023-04-10T08:04:10.918Z,2.17
2023-04-10T08:06:38.272Z,2.45
2023-04-10T08:09:05.496Z,1.67
2023-04-10T08:11:40.620Z,2.00
2023-04-10T08:14:07.821Z,1.88
2023-04-10T08:16:42.742Z,2.10
2023-04-10T08:19:10.076Z,1.60
2023-04-10T08:21:43.656Z,1.60
2023-04-10T08:24:31.540Z,1.67
2023-04-10T08:27:05.722Z,1.80
2023-04-10T08:29:32.882Z,1.45
2023-04-10T08:32:01.127Z,1.63
2023-04-10T08:34:34.705Z,1.20
2023-04-10T08:37:02.109Z,1.10
2023-04-10T08:39:35.638Z,1.90
2023-04-10T08:42:03.705Z,1.40
2023-04-10T08:44:31.036Z,1.02
2023-04-10T08:47:05.609Z,1.27
2023-04-10T08:49:39.241Z,1.70
2023-04-10T08:52:16.669Z,1.73
2023-04-10T08:54:46.358Z,1.30
2023-04-10T08:57:26.624Z,1.70
2023-04-10T08:59:53.954Z,1.40
2023-04-10T09:02:27.918Z,1.63
2023-04-10T09:04:56.425Z,1.50
2023-04-10T09:07:30.672Z,1.70
2023-04-10T09:09:57.854Z,1.60
2023-04-10T09:12:24.984Z,1.58
2023-04-10T09:14:59.884Z,1.45
2023-04-10T09:17:27.069Z,1.30
2023-04-10T09:20:01.611Z,1.40
2023-04-10T09:22:32.980Z,1.40
2023-04-10T09:25:13.797Z,1.00
2023-04-10T09:27:42.157Z,1.33
2023-04-10T09:30:09.446Z,1.27
2023-04-10T09:32:47.727Z,1.08
2023-04-10T09:37:48.733Z,1.35
2023-04-10T09:40:24.447Z,0.90
2023-04-10T09:42:58.884Z,1.50
2023-04-10T09:45:26.290Z,1.00
2023-04-10T09:48:09.690Z,1.50
2023-04-10T09:50:39.956Z,1.27
2023-04-10T09:53:21.736Z,1.42
2023-04-10T09:55:49.940Z,1.48
2023-04-10T09:58:18.878Z,1.40
2023-04-10T10:00:53.651Z,1.58
2023-04-10T10:03:21.560Z,1.50
2023-04-10T10:05:56.659Z,1.60
2023-04-10T10:08:24.590Z,1.50
2023-04-10T10:10:53.496Z,1.55
2023-04-10T10:13:40.727Z,1.55
2023-04-10T10:16:28.273Z,1.92
2023-04-10T10:19:05.684Z,1.75
2023-04-10T10:21:34.256Z,1.80
2023-04-10T10:24:15.637Z,1.70
2023-04-10T10:26:43.748Z,1.88
2023-04-10T10:29:17.678Z,1.95
2023-04-10T10:31:45.265Z,2.08
2023-04-10T10:36:46.759Z,2.30
2023-04-10T10:39:19.483Z,2.15
2023-04-10T10:42:00.655Z,1.88
2023-04-10T10:44:35.562Z,2.17
2023-04-10T10:47:15.749Z,1.90
2023-04-10T10:49:53.628Z,1.92
2023-04-10T10:52:45.743Z,1.73
2023-04-10T10:55:25.103Z,2.00
2023-04-10T10:57:59.894Z,1.88
2023-04-10T11:00:27.667Z,2.50
2023-04-10T11:03:20.014Z,1.45
2023-04-10T11:05:57.353Z,1.85
2023-04-10T11:08:39.787Z,1.92
2023-04-10T11:11:08.146Z,1.40
2023-04-10T11:13:35.813Z,1.35
2023-04-10T11:16:10.832Z,1.45
2023-04-10T11:18:56.142Z,1.27
2023-04-10T11:21:40.669Z,1.27
2023-04-10T11:24:21.698Z,1.50
2023-04-10T11:26:56.274Z,1.70
2023-04-10T11:29:35.601Z,1.40
2023-04-10T11:32:04.377Z,1.38
2023-04-10T11:34:39.794Z,1.15
2023-04-10T11:37:07.216Z,1.40
2023-04-10T11:39:34.392Z,1.15
2023-04-10T11:42:08.701Z,1.38
2023-04-10T11:44:36.268Z,1.23
2023-04-10T11:49:40.667Z,1.15
2023-04-10T11:52:14.750Z,1.00
2023-04-10T11:54:49.323Z,1.20
2023-04-10T11:57:23.659Z,1.02
2023-04-10T11:59:51.679Z,1.20
2023-04-10T12:02:19.024Z,0.90
2023-04-10T12:04:52.726Z,1.20
2023-04-10T12:07:19.937Z,0.80
2023-04-10T12:09:53.732Z,1.23
2023-04-10T12:12:21.756Z,0.98
2023-04-10T12:14:48.876Z,0.80
2023-04-10T12:17:23.802Z,1.30
2023-04-10T12:19:51.688Z,1.33
2023-04-10T12:22:26.720Z,0.85
2023-04-10T12:25:01.465Z,0.75
2023-04-10T12:27:35.689Z,1.27
2023-04-10T12:30:09.786Z,0.82
2023-04-10T12:32:43.827Z,0.80
2023-04-10T12:35:10.983Z,0.90
2023-04-10T12:38:03.755Z,1.00
2023-04-10T12:40:31.054Z,1.10
2023-04-10T12:42:58.126Z,1.05
2023-04-10T12:45:50.766Z,1.20
2023-04-10T12:48:24.276Z,0.95
2023-04-10T12:50:57.705Z,1.00
2023-04-10T12:53:25.464Z,1.05
2023-04-10T12:56:12.798Z,0.90
2023-04-10T12:58:42.455Z,1.20
2023-04-10T13:01:16.822Z,1.02
2023-04-10T13:03:44.061Z,0.80
2023-04-10T13:06:11.464Z,1.13
2023-04-10T13:08:44.754Z,0.93
2023-04-10T13:11:12.155Z,1.00
2023-04-10T13:13:45.753Z,0.90
2023-04-10T13:16:14.063Z,1.20
2023-04-10T13:18:41.238Z,1.30
2023-04-10T13:21:14.765Z,1.30
2023-04-10T13:24:09.639Z,1.35
2023-04-10T13:26:43.746Z,1.40
2023-04-10T13:29:11.013Z,1.20
2023-04-10T13:31:38.189Z,1.33
2023-04-10T13:34:11.725Z,1.30
2023-04-10T13:36:39.105Z,1.42
2023-04-10T13:41:40.183Z,1.42
2023-04-10T13:44:07.314Z,1.30
2023-04-10T13:46:40.796Z,1.27
2023-04-10T13:49:08.013Z,1.50
2023-04-10T13:51:41.795Z,1.23
2023-04-10T13:54:10.662Z,1.42
2023-04-10T13:56:52.986Z,1.48
2023-04-10T13:59:20.255Z,1.67
2023-04-10T14:01:47.743Z,1.73
2023-04-10T14:07:16.682Z,1.60
2023-04-10T14:09:50.808Z,1.80
2023-04-10T14:12:19.273Z,1.48
2023-04-10T14:14:46.389Z,1.70
2023-04-10T14:17:19.810Z,1.60
2023-04-10T14:19:48.953Z,1.65
2023-04-10T14:22:16.064Z,1.45
2023-04-10T14:24:52.502Z,3.28
2023-04-10T14:27:27.680Z,1.73
2023-04-10T14:30:02.910Z,1.83
2023-04-10T14:32:31.078Z,1.95
2023-04-10T14:34:58.207Z,1.80
2023-04-10T14:37:31.802Z,2.03
2023-04-10T14:39:58.972Z,1.90
2023-04-10T14:42:26.950Z,1.58
2023-04-10T14:45:00.837Z,1.70
2023-04-10T14:47:28.131Z,1.75
2023-04-10T14:49:55.421Z,1.58
2023-04-10T14:52:29.771Z,1.90
2023-04-10T14:54:56.965Z,2.33
2023-04-10T14:57:30.770Z,1.90
2023-04-10T14:59:57.983Z,2.35
2023-04-10T15:02:25.111Z,2.40
2023-04-10T15:04:58.880Z,1.70
2023-04-10T15:07:28.163Z,2.05
2023-04-10T15:09:58.564Z,2.10
2023-04-10T15:12:32.866Z,1.95
2023-04-10T15:15:00.902Z,1.90
2023-04-10T15:17:34.902Z,1.98
2023-04-10T15:20:02.233Z,2.05
2023-04-10T15:22:29.385Z,1.70
2023-04-10T15:25:03.063Z,1.50
2023-04-10T15:27:36.750Z,1.83
2023-04-10T15:30:11.776Z,2.00
2023-04-10T15:32:39.048Z,2.05
2023-04-10T15:35:06.505Z,1.85
2023-04-10T15:37:42.897Z,2.10
2023-04-10T15:40:10.619Z,2.15
2023-04-10T15:42:44.928Z,2.00
2023-04-10T15:45:12.104Z,2.03
2023-04-10T15:47:39.336Z,2.05
2023-04-10T15:50:13.801Z,2.03
2023-04-10T15:52:40.973Z,1.75
2023-04-10T15:55:08.343Z,2.38
2023-04-10T15:57:42.785Z,2.00
2023-04-10T16:00:10.326Z,2.15
2023-04-10T16:05:11.396Z,2.00
2023-04-10T16:07:39.181Z,2.20
2023-04-10T16:10:13.880Z,1.85
2023-04-10T16:12:41.353Z,2.15
2023-04-10T16:15:08.780Z,2.10
2023-04-10T16:17:42.903Z,1.73
2023-04-10T16:20:10.173Z,1.92
2023-04-10T16:22:43.911Z,2.25
2023-04-10T16:25:19.588Z,1.75
2023-04-10T16:27:55.786Z,1.70
2023-04-10T16:30:29.764Z,1.77
2023-04-10T16:32:57.073Z,1.80
2023-04-10T16:35:24.442Z,1.73
2023-04-10T16:37:57.814Z,1.98
2023-04-10T16:40:32.079Z,2.47
2023-04-10T16:43:07.894Z,1.80
2023-04-10T16:45:35.105Z,2.17
2023-04-10T16:48:02.444Z,1.80
2023-04-10T16:50:35.787Z,1.77
2023-04-10T16:53:02.901Z,1.90
2023-04-10T16:55:36.792Z,1.90
2023-04-10T16:58:03.888Z,2.00
2023-04-10T17:00:37.912Z,2.33
2023-04-10T17:03:07.178Z,1.90
2023-04-10T17:05:37.696Z,1.95
2023-04-10T17:08:11.794Z,1.40
2023-04-10T17:10:38.952Z,2.08
2023-04-10T17:13:12.864Z,2.10
2023-04-10T17:15:40.046Z,2.28
2023-04-10T17:18:07.185Z,2.25
2023-04-10T17:20:44.228Z,2.28
2023-04-10T17:23:12.337Z,2.05
2023-04-10T17:25:53.977Z,1.67
2023-04-10T17:28:27.788Z,1.90
2023-04-10T17:31:01.882Z,2.08
2023-04-10T17:33:29.131Z,2.15
2023-04-10T17:35:56.355Z,2.20
2023-04-10T17:38:29.912Z,2.17
2023-04-10T17:40:57.152Z,2.10
2023-04-10T17:43:24.237Z,2.30
2023-04-10T17:45:57.830Z,2.53
2023-04-10T17:48:25.104Z,1.80
2023-04-10T17:50:58.974Z,2.60
2023-04-10T17:53:26.606Z,2.03
2023-04-10T17:58:27.914Z,2.40
2023-04-10T18:00:55.229Z,2.42
2023-04-10T18:03:29.093Z,2.22
2023-04-10T18:05:56.311Z,2.50
2023-04-10T18:08:26.605Z,2.33
2023-04-10T18:11:00.038Z,2.38
2023-04-10T18:13:27.307Z,2.03
2023-04-10T18:15:54.385Z,2.13
2023-04-10T18:18:29.824Z,1.92
2023-04-10T18:20:57.033Z,2.20
2023-04-10T18:23:32.972Z,2.30
2023-04-10T18:26:06.820Z,2.25
2023-04-10T18:28:40.975Z,2.22
2023-04-10T18:31:08.384Z,2.20
2023-04-10T18:33:35.571Z,2.20
2023-04-10T18:36:10.075Z,2.20
2023-04-10T18:38:37.674Z,2.15
2023-04-10T18:41:05.022Z,2.10
2023-04-10T18:43:38.873Z,2.30
2023-04-10T18:46:06.376Z,2.20
2023-04-10T18:51:06.900Z,2.38
2023-04-10T18:53:34.203Z,2.58
2023-04-10T18:56:08.085Z,2.33
2023-04-10T18:58:35.606Z,2.28
2023-04-10T19:01:03.060Z,2.15
2023-04-10T19:03:36.991Z,2.28
2023-04-10T19:06:04.245Z,2.15
2023-04-10T19:08:37.945Z,2.58
2023-04-10T19:11:05.795Z,2.00
2023-04-10T19:13:39.984Z,2.25
2023-04-10T19:16:08.933Z,1.98
2023-04-10T19:18:36.235Z,2.13
2023-04-10T19:21:10.870Z,2.10
2023-04-10T19:23:38.761Z,1.80
2023-04-10T19:26:13.132Z,2.20
2023-04-10T19:28:46.979Z,2.17
2023-04-10T19:31:21.084Z,1.98
2023-04-10T19:33:48.366Z,2.10
2023-04-10T19:36:16.452Z,2.58
2023-04-10T19:38:55.179Z,2.30
2023-04-10T19:41:22.531Z,2.17
2023-04-10T19:43:59.224Z,2.08
2023-04-10T19:46:26.540Z,2.50
2023-04-10T19:48:54.822Z,2.53
2023-04-10T19:51:28.845Z,2.38
2023-04-10T19:53:57.475Z,2.47
2023-04-10T19:56:33.877Z,2.30
2023-04-10T19:59:01.445Z,2.45
2023-04-10T20:01:28.921Z,2.60
2023-04-10T20:04:03.082Z,2.60
2023-04-10T20:06:31.758Z,2.33
2023-04-10T20:09:06.056Z,2.40
2023-04-10T20:11:33.320Z,3.25
2023-04-10T20:14:00.460Z,2.25
2023-04-10T20:16:34.008Z,2.55
2023-04-10T20:19:01.485Z,2.35
2023-04-10T20:21:28.620Z,3.38
2023-04-10T20:24:03.891Z,2.70
2023-04-10T20:26:37.924Z,2.70
2023-04-10T20:29:11.882Z,2.50
2023-04-10T20:31:45.867Z,2.92
2023-04-10T20:34:13.238Z,3.08
2023-04-10T20:36:40.521Z,2.75
2023-04-10T20:39:13.809Z,3.22
2023-04-10T20:41:40.994Z,3.08
2023-04-10T20:44:14.946Z,2.75
2023-04-10T20:46:42.164Z,2.72
2023-04-10T20:49:12.509Z,2.78
2023-04-10T20:51:46.015Z,2.72
2023-04-10T20:54:13.197Z,2.72
2023-04-10T20:56:43.350Z,3.20
2023-04-10T20:59:17.881Z,2.75
2023-04-10T21:01:45.227Z,3.00
2023-04-10T21:04:18.888Z,2.80
2023-04-10T21:06:46.086Z,3.17
2023-04-10T21:09:13.252Z,3.00
2023-04-10T21:11:46.872Z,2.90
2023-04-10T21:14:14.353Z,3.00
2023-04-10T21:16:49.050Z,3.13
2023-04-10T21:19:16.212Z,2.88
2023-04-10T21:21:43.434Z,3.22
2023-04-10T21:24:16.927Z,2.88
2023-04-10T21:26:50.808Z,2.78
2023-04-10T21:29:24.913Z,3.00
2023-04-10T21:31:52.215Z,3.08
2023-04-10T21:34:19.360Z,3.67
2023-04-10T21:36:52.939Z,3.47
2023-04-10T21:39:20.336Z,2.78
2023-04-10T21:41:53.901Z,2.58
2023-04-10T21:44:21.211Z,3.10
2023-04-10T21:46:48.532Z,2.80
2023-04-10T21:49:22.009Z,2.83
2023-04-10T21:51:49.180Z,2.97
2023-04-10T21:54:23.088Z,2.85
2023-04-10T21:56:50.274Z,3.08
2023-04-10T21:59:17.434Z,2.80
2023-04-10T22:01:51.076Z,3.40
2023-04-10T22:04:18.620Z,2.90
2023-04-10T22:09:20.484Z,2.50
2023-04-10T22:14:21.567Z,3.00
2023-04-10T22:16:48.906Z,3.10
2023-04-10T22:19:16.028Z,3.15
2023-04-10T22:21:49.908Z,2.90
2023-04-10T22:24:23.898Z,2.90
2023-04-10T22:27:04.028Z,2.88
2023-04-10T22:29:31.252Z,2.67
2023-04-10T22:31:58.348Z,3.00
2023-04-10T22:34:31.899Z,2.50
2023-04-10T22:36:59.197Z,2.20
2023-04-10T22:39:32.946Z,2.85
2023-04-10T22:42:00.199Z,2.83
2023-04-10T22:44:27.367Z,3.42
2023-04-10T22:47:01.141Z,3.33
2023-04-10T22:49:28.309Z,3.03
2023-04-10T22:52:02.134Z,3.15
2023-04-10T22:54:29.804Z,3.20
2023-04-10T22:59:31.010Z,3.45
2023-04-10T23:01:58.343Z,2.92
2023-04-10T23:04:32.204Z,2.72
2023-04-10T23:06:59.449Z,3.05
2023-04-10T23:09:39.069Z,2.35
2023-04-10T23:12:06.285Z,3.22
2023-04-10T23:14:35.833Z,3.35
2023-04-10T23:17:10.216Z,3.20
2023-04-10T23:19:37.444Z,3.28
2023-04-10T23:22:04.556Z,5.25
2023-04-10T23:24:38.047Z,3.63
2023-04-10T23:27:14.930Z,3.60
2023-04-10T23:29:49.079Z,3.78
2023-04-10T23:32:16.779Z,3.00
2023-04-10T23:34:43.889Z,3.65
2023-04-10T23:37:17.921Z,3.40
2023-04-10T23:39:45.235Z,2.70
2023-04-10T23:42:19.003Z,3.30
2023-04-10T23:44:46.076Z,2.72
2023-04-10T23:47:13.399Z,3.30
2023-04-10T23:49:47.090Z,2.97
2023-04-10T23:52:14.352Z,2.78
2023-04-10T23:54:42.877Z,3.60
2023-04-10T23:57:17.012Z,2.83
2023-04-10T23:59:44.261Z,3.35
